sensor_id;sensor_type;location;lat;lon;timestamp;P1;durP1;ratioP1;P2;durP2;ratioP2
20443;SDS011;10381;53.730;10.010;2023-02-17T00:01:37;521.20;;;339.47;;
20443;SDS011;10381;53.730;10.010;2023-02-17T00:05:38;523.00;;;338.88;;
20443;SDS011;10381;53.730;10.010;2023-02-17T00:09:39;519.92;;;335.85;;
20443;SDS011;10381;53.730;10.010;2023-02-17T00:13:39;513.60;;;330.00;;
20443;SDS011;10381;53.730;10.010;2023-02-17T00:17:41;524.20;;;330.73;;
20443;SDS011;10381;53.730;10.010;2023-02-17T00:21:41;515.70;;;327.17;;
20443;SDS011;10381;53.730;10.010;2023-02-17T00:25:41;528.63;;;327.63;;
20443;SDS011;10381;53.730;10.010;2023-02-17T00:29:42;506.70;;;322.92;;
20443;SDS011;10381;53.730;10.010;2023-02-17T00:33:42;519.60;;;334.77;;
20443;SDS011;10381;53.730;10.010;2023-02-17T00:37:43;524.35;;;327.23;;
20443;SDS011;10381;53.730;10.010;2023-02-17T00:41:44;528.85;;;317.52;;
20443;SDS011;10381;53.730;10.010;2023-02-17T00:45:44;534.70;;;318.03;;
20443;SDS011;10381;53.730;10.010;2023-02-17T00:49:45;527.77;;;312.13;;
20443;SDS011;10381;53.730;10.010;2023-02-17T00:53:45;526.50;;;323.83;;
20443;SDS011;10381;53.730;10.010;2023-02-17T00:57:46;523.55;;;319.10;;
20443;SDS011;10381;53.730;10.010;2023-02-17T01:01:46;535.33;;;326.40;;
20443;SDS011;10381;53.730;10.010;2023-02-17T01:05:46;530.25;;;324.50;;
20443;SDS011;10381;53.730;10.010;2023-02-17T01:09:47;550.97;;;322.90;;
20443;SDS011;10381;53.730;10.010;2023-02-17T01:13:51;541.63;;;327.40;;
20443;SDS011;10381;53.730;10.010;2023-02-17T01:17:52;550.38;;;329.55;;
20443;SDS011;10381;53.730;10.010;2023-02-17T01:21:52;538.70;;;335.40;;
20443;SDS011;10381;53.730;10.010;2023-02-17T01:25:53;534.95;;;322.83;;
20443;SDS011;10381;53.730;10.010;2023-02-17T01:29:53;525.93;;;334.00;;
20443;SDS011;10381;53.730;10.010;2023-02-17T01:33:57;536.38;;;337.25;;
20443;SDS011;10381;53.730;10.010;2023-02-17T01:37:59;524.80;;;336.35;;
20443;SDS011;10381;53.730;10.010;2023-02-17T01:42:00;533.65;;;326.17;;
20443;SDS011;10381;53.730;10.010;2023-02-17T01:46:01;521.77;;;325.67;;
20443;SDS011;10381;53.730;10.010;2023-02-17T01:50:02;529.20;;;324.30;;
20443;SDS011;10381;53.730;10.010;2023-02-17T01:54:05;508.00;;;313.95;;
20443;SDS011;10381;53.730;10.010;2023-02-17T01:58:11;511.33;;;318.15;;
20443;SDS011;10381;53.730;10.010;2023-02-17T02:02:15;507.90;;;306.40;;
20443;SDS011;10381;53.730;10.010;2023-02-17T02:06:17;492.92;;;302.13;;
20443;SDS011;10381;53.730;10.010;2023-02-17T02:10:22;498.52;;;302.48;;
20443;SDS011;10381;53.730;10.010;2023-02-17T02:14:22;493.65;;;305.77;;
20443;SDS011;10381;53.730;10.010;2023-02-17T02:18:29;493.33;;;296.13;;
20443;SDS011;10381;53.730;10.010;2023-02-17T02:31:50;453.08;;;270.50;;
20443;SDS011;10381;53.730;10.010;2023-02-17T02:36:02;456.35;;;261.63;;
20443;SDS011;10381;53.730;10.010;2023-02-17T02:40:10;452.42;;;263.95;;
20443;SDS011;10381;53.730;10.010;2023-02-17T02:44:14;443.27;;;263.30;;
20443;SDS011;10381;53.730;10.010;2023-02-17T02:48:17;445.55;;;266.98;;
20443;SDS011;10381;53.730;10.010;2023-02-17T02:52:30;450.53;;;266.67;;
20443;SDS011;10381;53.730;10.010;2023-02-17T02:56:57;436.20;;;268.77;;
20443;SDS011;10381;53.730;10.010;2023-02-17T03:01:10;431.60;;;259.50;;
20443;SDS011;10381;53.730;10.010;2023-02-17T03:05:18;429.73;;;251.25;;
20443;SDS011;10381;53.730;10.010;2023-02-17T03:09:29;423.67;;;258.25;;
20443;SDS011;10381;53.730;10.010;2023-02-17T03:13:31;397.10;;;243.95;;
20443;SDS011;10381;53.730;10.010;2023-02-17T03:17:33;402.48;;;243.25;;
20443;SDS011;10381;53.730;10.010;2023-02-17T03:21:34;396.00;;;248.68;;
20443;SDS011;10381;53.730;10.010;2023-02-17T03:25:38;413.55;;;250.43;;
20443;SDS011;10381;53.730;10.010;2023-02-17T03:29:39;417.97;;;254.03;;
20443;SDS011;10381;53.730;10.010;2023-02-17T03:33:40;415.75;;;256.20;;
20443;SDS011;10381;53.730;10.010;2023-02-17T03:37:40;407.02;;;250.35;;
20443;SDS011;10381;53.730;10.010;2023-02-17T03:41:40;401.87;;;254.53;;
20443;SDS011;10381;53.730;10.010;2023-02-17T03:45:41;415.48;;;258.83;;
20443;SDS011;10381;53.730;10.010;2023-02-17T03:49:41;420.63;;;264.75;;
20443;SDS011;10381;53.730;10.010;2023-02-17T03:53:42;439.70;;;274.70;;
20443;SDS011;10381;53.730;10.010;2023-02-17T03:57:42;435.52;;;271.23;;
20443;SDS011;10381;53.730;10.010;2023-02-17T04:01:43;424.00;;;272.07;;
20443;SDS011;10381;53.730;10.010;2023-02-17T04:05:43;420.53;;;272.50;;
20443;SDS011;10381;53.730;10.010;2023-02-17T04:09:44;432.80;;;264.73;;
20443;SDS011;10381;53.730;10.010;2023-02-17T04:13:44;439.57;;;266.27;;
20443;SDS011;10381;53.730;10.010;2023-02-17T04:17:46;413.53;;;262.43;;
20443;SDS011;10381;53.730;10.010;2023-02-17T04:21:50;416.00;;;247.70;;
20443;SDS011;10381;53.730;10.010;2023-02-17T04:25:50;416.37;;;247.57;;
20443;SDS011;10381;53.730;10.010;2023-02-17T04:29:50;423.00;;;249.73;;
20443;SDS011;10381;53.730;10.010;2023-02-17T04:33:50;418.20;;;243.47;;
20443;SDS011;10381;53.730;10.010;2023-02-17T04:37:51;412.90;;;246.23;;
20443;SDS011;10381;53.730;10.010;2023-02-17T04:41:52;404.77;;;244.48;;
20443;SDS011;10381;53.730;10.010;2023-02-17T04:45:52;416.27;;;251.77;;
20443;SDS011;10381;53.730;10.010;2023-02-17T04:49:53;409.52;;;249.88;;
20443;SDS011;10381;53.730;10.010;2023-02-17T04:53:53;411.60;;;254.23;;
20443;SDS011;10381;53.730;10.010;2023-02-17T04:57:54;415.23;;;252.73;;
20443;SDS011;10381;53.730;10.010;2023-02-17T05:01:54;425.27;;;256.33;;
20443;SDS011;10381;53.730;10.010;2023-02-17T05:05:54;410.10;;;245.07;;
20443;SDS011;10381;53.730;10.010;2023-02-17T05:09:55;426.73;;;250.68;;
20443;SDS011;10381;53.730;10.010;2023-02-17T05:13:55;421.80;;;259.97;;
20443;SDS011;10381;53.730;10.010;2023-02-17T05:17:55;437.98;;;267.08;;
20443;SDS011;10381;53.730;10.010;2023-02-17T05:21:56;441.87;;;272.30;;
20443;SDS011;10381;53.730;10.010;2023-02-17T05:25:56;429.70;;;260.73;;
20443;SDS011;10381;53.730;10.010;2023-02-17T05:29:56;432.70;;;263.27;;
20443;SDS011;10381;53.730;10.010;2023-02-17T05:33:56;437.53;;;260.57;;
20443;SDS011;10381;53.730;10.010;2023-02-17T05:37:57;432.87;;;277.70;;
20443;SDS011;10381;53.730;10.010;2023-02-17T05:41:57;433.97;;;272.00;;
20443;SDS011;10381;53.730;10.010;2023-02-17T05:46:02;419.70;;;264.33;;
20443;SDS011;10381;53.730;10.010;2023-02-17T05:50:03;381.98;;;234.02;;
20443;SDS011;10381;53.730;10.010;2023-02-17T05:54:03;375.05;;;219.18;;
20443;SDS011;10381;53.730;10.010;2023-02-17T05:58:04;355.92;;;214.10;;
20443;SDS011;10381;53.730;10.010;2023-02-17T06:02:04;371.33;;;215.27;;
20443;SDS011;10381;53.730;10.010;2023-02-17T06:06:05;352.00;;;215.23;;
20443;SDS011;10381;53.730;10.010;2023-02-17T06:10:06;348.95;;;203.55;;
20443;SDS011;10381;53.730;10.010;2023-02-17T06:14:07;393.15;;;229.98;;
20443;SDS011;10381;53.730;10.010;2023-02-17T06:18:08;379.10;;;219.90;;
20443;SDS011;10381;53.730;10.010;2023-02-17T06:22:08;392.90;;;223.35;;
20443;SDS011;10381;53.730;10.010;2023-02-17T06:26:08;370.73;;;225.77;;
20443;SDS011;10381;53.730;10.010;2023-02-17T06:30:09;372.13;;;220.88;;
20443;SDS011;10381;53.730;10.010;2023-02-17T06:34:10;378.75;;;211.50;;
20443;SDS011;10381;53.730;10.010;2023-02-17T06:38:10;414.17;;;238.98;;
20443;SDS011;10381;53.730;10.010;2023-02-17T06:42:11;411.47;;;233.10;;
20443;SDS011;10381;53.730;10.010;2023-02-17T06:46:11;411.97;;;250.50;;
20443;SDS011;10381;53.730;10.010;2023-02-17T06:50:11;447.97;;;269.27;;
20443;SDS011;10381;53.730;10.010;2023-02-17T06:54:11;443.08;;;261.15;;
20443;SDS011;10381;53.730;10.010;2023-02-17T06:58:12;439.27;;;256.67;;
20443;SDS011;10381;53.730;10.010;2023-02-17T07:02:12;452.27;;;264.50;;
20443;SDS011;10381;53.730;10.010;2023-02-17T07:06:14;466.23;;;271.23;;
20443;SDS011;10381;53.730;10.010;2023-02-17T07:10:14;469.63;;;270.65;;
20443;SDS011;10381;53.730;10.010;2023-02-17T07:14:15;471.23;;;267.77;;
20443;SDS011;10381;53.730;10.010;2023-02-17T07:18:15;480.63;;;264.17;;
20443;SDS011;10381;53.730;10.010;2023-02-17T07:22:15;483.42;;;273.10;;
20443;SDS011;10381;53.730;10.010;2023-02-17T07:26:16;498.40;;;286.90;;
20443;SDS011;10381;53.730;10.010;2023-02-17T07:30:16;481.73;;;278.47;;
20443;SDS011;10381;53.730;10.010;2023-02-17T07:34:17;479.65;;;270.95;;
20443;SDS011;10381;53.730;10.010;2023-02-17T07:38:17;478.67;;;272.17;;
20443;SDS011;10381;53.730;10.010;2023-02-17T07:42:18;486.30;;;271.80;;
20443;SDS011;10381;53.730;10.010;2023-02-17T07:46:18;489.67;;;285.17;;
20443;SDS011;10381;53.730;10.010;2023-02-17T07:50:18;497.52;;;298.95;;
20443;SDS011;10381;53.730;10.010;2023-02-17T07:54:19;495.90;;;296.65;;
20443;SDS011;10381;53.730;10.010;2023-02-17T07:58:19;521.97;;;308.27;;
20443;SDS011;10381;53.730;10.010;2023-02-17T08:02:19;484.63;;;285.10;;
20443;SDS011;10381;53.730;10.010;2023-02-17T08:06:21;481.20;;;292.67;;
20443;SDS011;10381;53.730;10.010;2023-02-17T08:10:22;461.45;;;282.55;;
20443;SDS011;10381;53.730;10.010;2023-02-17T08:14:41;468.77;;;288.98;;
20443;SDS011;10381;53.730;10.010;2023-02-17T08:18:41;460.35;;;271.63;;
20443;SDS011;10381;53.730;10.010;2023-02-17T08:22:42;448.17;;;299.67;;
20443;SDS011;10381;53.730;10.010;2023-02-17T08:26:42;427.63;;;276.47;;
20443;SDS011;10381;53.730;10.010;2023-02-17T08:30:43;429.10;;;272.67;;
20443;SDS011;10381;53.730;10.010;2023-02-17T08:34:43;404.13;;;248.37;;
20443;SDS011;10381;53.730;10.010;2023-02-17T08:38:44;379.35;;;234.50;;
20443;SDS011;10381;53.730;10.010;2023-02-17T08:42:49;374.75;;;232.65;;
20443;SDS011;10381;53.730;10.010;2023-02-17T08:46:49;351.38;;;217.45;;
20443;SDS011;10381;53.730;10.010;2023-02-17T08:50:51;340.05;;;239.15;;
20443;SDS011;10381;53.730;10.010;2023-02-17T08:54:51;329.73;;;206.10;;
20443;SDS011;10381;53.730;10.010;2023-02-17T08:58:52;295.45;;;185.05;;
20443;SDS011;10381;53.730;10.010;2023-02-17T09:02:53;303.23;;;180.15;;
20443;SDS011;10381;53.730;10.010;2023-02-17T09:06:53;293.33;;;182.17;;
20443;SDS011;10381;53.730;10.010;2023-02-17T09:10:55;282.00;;;174.95;;
20443;SDS011;10381;53.730;10.010;2023-02-17T09:14:55;272.93;;;172.17;;
20443;SDS011;10381;53.730;10.010;2023-02-17T09:18:56;259.70;;;164.50;;
20443;SDS011;10381;53.730;10.010;2023-02-17T09:22:56;254.13;;;163.40;;
20443;SDS011;10381;53.730;10.010;2023-02-17T09:26:56;247.77;;;158.77;;
20443;SDS011;10381;53.730;10.010;2023-02-17T09:30:56;247.97;;;155.47;;
20443;SDS011;10381;53.730;10.010;2023-02-17T09:34:57;251.83;;;159.73;;
20443;SDS011;10381;53.730;10.010;2023-02-17T09:39:00;238.95;;;159.35;;
20443;SDS011;10381;53.730;10.010;2023-02-17T09:43:00;252.05;;;164.45;;
20443;SDS011;10381;53.730;10.010;2023-02-17T09:47:04;262.80;;;166.02;;
20443;SDS011;10381;53.730;10.010;2023-02-17T09:51:15;276.83;;;173.32;;
20443;SDS011;10381;53.730;10.010;2023-02-17T09:59:38;278.33;;;174.25;;
20443;SDS011;10381;53.730;10.010;2023-02-17T10:07:54;269.77;;;174.63;;
20443;SDS011;10381;53.730;10.010;2023-02-17T10:12:02;287.27;;;182.05;;
20443;SDS011;10381;53.730;10.010;2023-02-17T10:16:07;316.08;;;203.00;;
20443;SDS011;10381;53.730;10.010;2023-02-17T10:20:21;344.80;;;214.60;;
20443;SDS011;10381;53.730;10.010;2023-02-17T10:24:32;343.70;;;212.38;;
20443;SDS011;10381;53.730;10.010;2023-02-17T10:37:13;353.73;;;214.55;;
20443;SDS011;10381;53.730;10.010;2023-02-17T10:41:31;368.95;;;202.73;;
20443;SDS011;10381;53.730;10.010;2023-02-17T10:45:34;379.55;;;222.00;;
20443;SDS011;10381;53.730;10.010;2023-02-17T10:49:44;405.13;;;230.90;;
20443;SDS011;10381;53.730;10.010;2023-02-17T10:53:50;367.15;;;225.65;;
20443;SDS011;10381;53.730;10.010;2023-02-17T10:57:57;360.02;;;208.88;;
20443;SDS011;10381;53.730;10.010;2023-02-17T11:06:29;394.77;;;239.48;;
20443;SDS011;10381;53.730;10.010;2023-02-17T11:10:33;405.40;;;255.98;;
20443;SDS011;10381;53.730;10.010;2023-02-17T11:14:36;441.00;;;277.40;;
20443;SDS011;10381;53.730;10.010;2023-02-17T11:18:44;456.98;;;286.80;;
20443;SDS011;10381;53.730;10.010;2023-02-17T11:23:32;476.90;;;291.05;;
20443;SDS011;10381;53.730;10.010;2023-02-17T11:27:13;529.88;;;323.27;;
20443;SDS011;10381;53.730;10.010;2023-02-17T11:31:24;563.83;;;348.05;;
20443;SDS011;10381;53.730;10.010;2023-02-17T11:35:27;592.30;;;344.90;;
20443;SDS011;10381;53.730;10.010;2023-02-17T11:39:47;561.50;;;351.65;;
20443;SDS011;10381;53.730;10.010;2023-02-17T11:56:43;622.13;;;401.73;;
20443;SDS011;10381;53.730;10.010;2023-02-17T12:01:08;630.58;;;396.67;;
20443;SDS011;10381;53.730;10.010;2023-02-17T12:18:08;589.35;;;375.15;;
20443;SDS011;10381;53.730;10.010;2023-02-17T12:34:49;561.50;;;347.60;;
20443;SDS011;10381;53.730;10.010;2023-02-17T12:39:48;581.03;;;357.70;;
20443;SDS011;10381;53.730;10.010;2023-02-17T12:43:30;578.55;;;372.15;;
20443;SDS011;10381;53.730;10.010;2023-02-17T12:47:46;585.17;;;372.25;;
20443;SDS011;10381;53.730;10.010;2023-02-17T12:56:13;559.90;;;372.17;;
20443;SDS011;10381;53.730;10.010;2023-02-17T13:00:37;561.72;;;364.55;;
20443;SDS011;10381;53.730;10.010;2023-02-17T13:04:42;584.65;;;395.55;;
20443;SDS011;10381;53.730;10.010;2023-02-17T13:08:45;565.53;;;366.95;;
20443;SDS011;10381;53.730;10.010;2023-02-17T13:12:56;580.70;;;381.13;;
20443;SDS011;10381;53.730;10.010;2023-02-17T13:17:05;580.78;;;385.20;;
20443;SDS011;10381;53.730;10.010;2023-02-17T13:25:32;589.22;;;413.63;;
20443;SDS011;10381;53.730;10.010;2023-02-17T13:29:34;571.92;;;402.25;;
20443;SDS011;10381;53.730;10.010;2023-02-17T13:33:39;589.13;;;410.98;;
20443;SDS011;10381;53.730;10.010;2023-02-17T13:37:43;569.20;;;401.67;;
20443;SDS011;10381;53.730;10.010;2023-02-17T13:41:46;587.53;;;418.48;;
20443;SDS011;10381;53.730;10.010;2023-02-17T13:45:48;625.70;;;476.73;;
20443;SDS011;10381;53.730;10.010;2023-02-17T13:49:55;607.40;;;459.55;;
20443;SDS011;10381;53.730;10.010;2023-02-17T13:53:57;655.47;;;487.13;;
20443;SDS011;10381;53.730;10.010;2023-02-17T13:58:04;645.22;;;485.70;;
20443;SDS011;10381;53.730;10.010;2023-02-17T14:02:14;650.13;;;505.90;;
20443;SDS011;10381;53.730;10.010;2023-02-17T14:06:37;696.05;;;565.20;;
20443;SDS011;10381;53.730;10.010;2023-02-17T14:10:39;730.95;;;602.35;;
20443;SDS011;10381;53.730;10.010;2023-02-17T14:14:40;775.00;;;640.15;;
20443;SDS011;10381;53.730;10.010;2023-02-17T14:18:40;819.58;;;681.33;;
20443;SDS011;10381;53.730;10.010;2023-02-17T14:22:41;836.00;;;744.63;;
20443;SDS011;10381;53.730;10.010;2023-02-17T14:26:48;847.27;;;767.10;;
20443;SDS011;10381;53.730;10.010;2023-02-17T14:30:48;359.45;;;328.30;;
20443;SDS011;10381;53.730;10.010;2023-02-17T14:34:49;111.18;;;99.88;;
20443;SDS011;10381;53.730;10.010;2023-02-17T14:38:53;52.25;;;47.10;;
20443;SDS011;10381;53.730;10.010;2023-02-17T14:42:54;38.53;;;29.63;;
20443;SDS011;10381;53.730;10.010;2023-02-17T14:46:55;28.73;;;25.83;;
20443;SDS011;10381;53.730;10.010;2023-02-17T14:50:55;29.53;;;24.03;;
20443;SDS011;10381;53.730;10.010;2023-02-17T14:54:57;31.50;;;21.77;;
20443;SDS011;10381;53.730;10.010;2023-02-17T14:58:58;42.92;;;21.95;;
20443;SDS011;10381;53.730;10.010;2023-02-17T15:02:59;31.83;;;19.77;;
20443;SDS011;10381;53.730;10.010;2023-02-17T15:06:59;39.27;;;17.30;;
20443;SDS011;10381;53.730;10.010;2023-02-17T15:10:59;29.67;;;17.03;;
20443;SDS011;10381;53.730;10.010;2023-02-17T15:15:01;31.75;;;18.55;;
20443;SDS011;10381;53.730;10.010;2023-02-17T15:19:01;31.33;;;18.30;;
20443;SDS011;10381;53.730;10.010;2023-02-17T15:23:01;36.00;;;19.95;;
20443;SDS011;10381;53.730;10.010;2023-02-17T15:27:02;29.92;;;18.55;;
20443;SDS011;10381;53.730;10.010;2023-02-17T15:31:04;35.60;;;19.55;;
20443;SDS011;10381;53.730;10.010;2023-02-17T15:35:11;41.20;;;21.00;;
20443;SDS011;10381;53.730;10.010;2023-02-17T15:39:18;32.72;;;18.80;;
20443;SDS011;10381;53.730;10.010;2023-02-17T15:43:20;32.13;;;17.05;;
20443;SDS011;10381;53.730;10.010;2023-02-17T15:47:21;32.25;;;17.73;;
20443;SDS011;10381;53.730;10.010;2023-02-17T15:51:21;28.33;;;18.80;;
20443;SDS011;10381;53.730;10.010;2023-02-17T15:55:23;39.30;;;17.60;;
20443;SDS011;10381;53.730;10.010;2023-02-17T15:59:24;43.28;;;19.50;;
20443;SDS011;10381;53.730;10.010;2023-02-17T16:03:26;43.67;;;17.50;;
20443;SDS011;10381;53.730;10.010;2023-02-17T16:07:26;41.37;;;15.67;;
20443;SDS011;10381;53.730;10.010;2023-02-17T16:11:26;36.55;;;15.77;;
20443;SDS011;10381;53.730;10.010;2023-02-17T16:15:28;31.67;;;16.42;;
20443;SDS011;10381;53.730;10.010;2023-02-17T16:19:30;27.73;;;15.63;;
20443;SDS011;10381;53.730;10.010;2023-02-17T16:23:32;25.42;;;16.33;;
20443;SDS011;10381;53.730;10.010;2023-02-17T16:27:35;26.58;;;15.63;;
20443;SDS011;10381;53.730;10.010;2023-02-17T16:31:35;28.83;;;15.50;;
20443;SDS011;10381;53.730;10.010;2023-02-17T16:35:36;25.40;;;15.17;;
20443;SDS011;10381;53.730;10.010;2023-02-17T16:39:37;25.85;;;15.32;;
20443;SDS011;10381;53.730;10.010;2023-02-17T16:43:38;38.97;;;16.73;;
20443;SDS011;10381;53.730;10.010;2023-02-17T16:47:39;26.35;;;15.43;;
20443;SDS011;10381;53.730;10.010;2023-02-17T16:51:39;33.40;;;16.30;;
20443;SDS011;10381;53.730;10.010;2023-02-17T16:55:40;28.80;;;15.43;;
20443;SDS011;10381;53.730;10.010;2023-02-17T16:59:41;31.65;;;16.00;;
20443;SDS011;10381;53.730;10.010;2023-02-17T17:03:41;34.87;;;16.37;;
20443;SDS011;10381;53.730;10.010;2023-02-17T17:07:42;30.23;;;16.55;;
20443;SDS011;10381;53.730;10.010;2023-02-17T17:11:43;26.95;;;15.93;;
20443;SDS011;10381;53.730;10.010;2023-02-17T17:15:44;27.42;;;15.05;;
20443;SDS011;10381;53.730;10.010;2023-02-17T17:19:45;28.70;;;16.90;;
20443;SDS011;10381;53.730;10.010;2023-02-17T17:23:45;34.40;;;16.15;;
20443;SDS011;10381;53.730;10.010;2023-02-17T17:27:46;41.05;;;18.10;;
20443;SDS011;10381;53.730;10.010;2023-02-17T17:31:46;33.22;;;16.67;;
20443;SDS011;10381;53.730;10.010;2023-02-17T17:35:46;32.88;;;17.60;;
20443;SDS011;10381;53.730;10.010;2023-02-17T17:39:47;37.30;;;16.13;;
20443;SDS011;10381;53.730;10.010;2023-02-17T17:43:47;39.20;;;16.83;;
20443;SDS011;10381;53.730;10.010;2023-02-17T17:47:48;32.22;;;15.55;;
20443;SDS011;10381;53.730;10.010;2023-02-17T17:51:49;25.40;;;16.08;;
20443;SDS011;10381;53.730;10.010;2023-02-17T17:55:49;31.70;;;15.97;;
20443;SDS011;10381;53.730;10.010;2023-02-17T17:59:50;53.43;;;17.00;;
20443;SDS011;10381;53.730;10.010;2023-02-17T18:03:50;38.17;;;17.03;;
20443;SDS011;10381;53.730;10.010;2023-02-17T18:07:50;36.77;;;17.10;;
20443;SDS011;10381;53.730;10.010;2023-02-17T18:11:51;38.75;;;16.38;;
20443;SDS011;10381;53.730;10.010;2023-02-17T18:15:53;31.60;;;17.02;;
20443;SDS011;10381;53.730;10.010;2023-02-17T18:19:53;45.25;;;17.45;;
20443;SDS011;10381;53.730;10.010;2023-02-17T18:23:54;30.52;;;16.52;;
20443;SDS011;10381;53.730;10.010;2023-02-17T18:27:54;50.67;;;18.73;;
20443;SDS011;10381;53.730;10.010;2023-02-17T18:31:55;41.50;;;18.45;;
20443;SDS011;10381;53.730;10.010;2023-02-17T18:36:04;36.35;;;18.60;;
20443;SDS011;10381;53.730;10.010;2023-02-17T18:40:25;33.38;;;18.92;;
20443;SDS011;10381;53.730;10.010;2023-02-17T18:44:28;30.02;;;17.05;;
20443;SDS011;10381;53.730;10.010;2023-02-17T18:48:28;35.67;;;18.27;;
20443;SDS011;10381;53.730;10.010;2023-02-17T18:52:29;32.72;;;18.75;;
20443;SDS011;10381;53.730;10.010;2023-02-17T18:56:30;32.73;;;17.90;;
20443;SDS011;10381;53.730;10.010;2023-02-17T19:00:32;45.88;;;18.98;;
20443;SDS011;10381;53.730;10.010;2023-02-17T19:04:33;34.60;;;18.98;;
20443;SDS011;10381;53.730;10.010;2023-02-17T19:08:33;27.85;;;17.45;;
20443;SDS011;10381;53.730;10.010;2023-02-17T19:12:34;36.70;;;17.60;;
20443;SDS011;10381;53.730;10.010;2023-02-17T19:16:34;30.55;;;17.60;;
20443;SDS011;10381;53.730;10.010;2023-02-17T19:20:36;33.88;;;16.70;;
20443;SDS011;10381;53.730;10.010;2023-02-17T19:24:37;36.67;;;18.13;;
20443;SDS011;10381;53.730;10.010;2023-02-17T19:28:39;23.13;;;16.85;;
20443;SDS011;10381;53.730;10.010;2023-02-17T19:32:40;37.58;;;18.02;;
20443;SDS011;10381;53.730;10.010;2023-02-17T19:36:40;30.30;;;16.47;;
20443;SDS011;10381;53.730;10.010;2023-02-17T19:40:40;38.38;;;17.77;;
20443;SDS011;10381;53.730;10.010;2023-02-17T19:44:41;29.83;;;17.17;;
20443;SDS011;10381;53.730;10.010;2023-02-17T19:48:41;29.75;;;18.20;;
20443;SDS011;10381;53.730;10.010;2023-02-17T19:52:41;39.43;;;18.73;;
20443;SDS011;10381;53.730;10.010;2023-02-17T19:56:42;33.20;;;16.63;;
20443;SDS011;10381;53.730;10.010;2023-02-17T20:00:42;34.72;;;16.77;;
20443;SDS011;10381;53.730;10.010;2023-02-17T20:04:43;35.70;;;17.50;;
20443;SDS011;10381;53.730;10.010;2023-02-17T20:08:46;27.67;;;16.42;;
20443;SDS011;10381;53.730;10.010;2023-02-17T20:12:51;29.63;;;16.75;;
20443;SDS011;10381;53.730;10.010;2023-02-17T20:16:51;41.97;;;16.90;;
20443;SDS011;10381;53.730;10.010;2023-02-17T20:20:55;31.45;;;17.75;;
20443;SDS011;10381;53.730;10.010;2023-02-17T20:24:56;30.75;;;17.23;;
20443;SDS011;10381;53.730;10.010;2023-02-17T20:28:57;28.67;;;17.17;;
20443;SDS011;10381;53.730;10.010;2023-02-17T20:32:58;38.42;;;18.83;;
20443;SDS011;10381;53.730;10.010;2023-02-17T20:36:59;27.63;;;17.67;;
20443;SDS011;10381;53.730;10.010;2023-02-17T20:40:59;38.03;;;17.50;;
20443;SDS011;10381;53.730;10.010;2023-02-17T20:45:00;32.87;;;16.77;;
20443;SDS011;10381;53.730;10.010;2023-02-17T20:49:00;38.33;;;18.60;;
20443;SDS011;10381;53.730;10.010;2023-02-17T20:53:00;32.13;;;18.53;;
20443;SDS011;10381;53.730;10.010;2023-02-17T20:57:01;49.50;;;19.25;;
20443;SDS011;10381;53.730;10.010;2023-02-17T21:01:01;36.15;;;18.35;;
20443;SDS011;10381;53.730;10.010;2023-02-17T21:05:02;40.20;;;18.83;;
20443;SDS011;10381;53.730;10.010;2023-02-17T21:09:07;37.17;;;18.10;;
20443;SDS011;10381;53.730;10.010;2023-02-17T21:13:11;47.97;;;18.25;;
20443;SDS011;10381;53.730;10.010;2023-02-17T21:17:11;32.57;;;17.47;;
20443;SDS011;10381;53.730;10.010;2023-02-17T21:21:12;33.27;;;19.00;;
20443;SDS011;10381;53.730;10.010;2023-02-17T21:25:14;39.78;;;18.23;;
20443;SDS011;10381;53.730;10.010;2023-02-17T21:29:14;36.90;;;17.50;;
20443;SDS011;10381;53.730;10.010;2023-02-17T21:33:14;36.17;;;19.17;;
20443;SDS011;10381;53.730;10.010;2023-02-17T21:37:15;37.47;;;17.93;;
20443;SDS011;10381;53.730;10.010;2023-02-17T21:41:16;39.28;;;18.88;;
20443;SDS011;10381;53.730;10.010;2023-02-17T21:45:19;37.67;;;18.88;;
20443;SDS011;10381;53.730;10.010;2023-02-17T21:49:19;33.93;;;18.80;;
20443;SDS011;10381;53.730;10.010;2023-02-17T21:53:19;31.63;;;20.57;;
20443;SDS011;10381;53.730;10.010;2023-02-17T21:57:19;38.20;;;20.87;;
20443;SDS011;10381;53.730;10.010;2023-02-17T22:01:20;45.20;;;20.42;;
20443;SDS011;10381;53.730;10.010;2023-02-17T22:05:22;38.75;;;19.83;;
20443;SDS011;10381;53.730;10.010;2023-02-17T22:09:22;34.25;;;19.52;;
20443;SDS011;10381;53.730;10.010;2023-02-17T22:13:23;29.08;;;18.33;;
20443;SDS011;10381;53.730;10.010;2023-02-17T22:17:23;40.38;;;19.23;;
20443;SDS011;10381;53.730;10.010;2023-02-17T22:21:23;51.63;;;19.47;;
20443;SDS011;10381;53.730;10.010;2023-02-17T22:25:24;35.50;;;17.25;;
20443;SDS011;10381;53.730;10.010;2023-02-17T22:29:24;43.53;;;19.80;;
20443;SDS011;10381;53.730;10.010;2023-02-17T22:33:25;49.38;;;20.05;;
20443;SDS011;10381;53.730;10.010;2023-02-17T22:37:25;40.97;;;18.88;;
20443;SDS011;10381;53.730;10.010;2023-02-17T22:41:25;27.70;;;19.30;;
20443;SDS011;10381;53.730;10.010;2023-02-17T22:45:26;40.25;;;19.70;;
20443;SDS011;10381;53.730;10.010;2023-02-17T22:49:26;48.47;;;21.53;;
20443;SDS011;10381;53.730;10.010;2023-02-17T22:53:26;53.85;;;21.75;;
20443;SDS011;10381;53.730;10.010;2023-02-17T22:57:27;44.07;;;19.73;;
20443;SDS011;10381;53.730;10.010;2023-02-17T23:01:28;47.30;;;20.10;;
20443;SDS011;10381;53.730;10.010;2023-02-17T23:05:30;39.80;;;19.05;;
20443;SDS011;10381;53.730;10.010;2023-02-17T23:09:30;44.00;;;20.93;;
20443;SDS011;10381;53.730;10.010;2023-02-17T23:13:30;44.67;;;21.03;;
20443;SDS011;10381;53.730;10.010;2023-02-17T23:17:31;37.85;;;21.90;;
20443;SDS011;10381;53.730;10.010;2023-02-17T23:21:53;39.92;;;21.98;;
20443;SDS011;10381;53.730;10.010;2023-02-17T23:25:55;36.97;;;21.55;;
20443;SDS011;10381;53.730;10.010;2023-02-17T23:29:55;34.53;;;23.43;;
20443;SDS011;10381;53.730;10.010;2023-02-17T23:33:55;38.83;;;23.67;;
20443;SDS011;10381;53.730;10.010;2023-02-17T23:37:56;36.07;;;22.37;;
20443;SDS011;10381;53.730;10.010;2023-02-17T23:41:56;56.22;;;24.23;;
20443;SDS011;10381;53.730;10.010;2023-02-17T23:45:56;31.60;;;22.52;;
20443;SDS011;10381;53.730;10.010;2023-02-17T23:49:58;37.45;;;21.88;;
20443;SDS011;10381;53.730;10.010;2023-02-17T23:53:58;47.05;;;22.52;;
20443;SDS011;10381;53.730;10.010;2023-02-17T23:57:59;43.67;;;22.65;;
